Time;durP1;ratioP1;P1;durP2;ratioP2;P2;SDS_P1;SDS_P2;PMS_P1;PMS_P2;Temp;Humidity;BMP_temperature;BMP_pressure;BME280_temperature;BME280_humidity;BME280_pressure;Samples;Min_cycle;Max_cycle;Signal;HPM_P1;HPM_P2
2023/10/02 00:05:06;;;;;;;22.35;11.10;;;;;;;17.07;89.03;101980.69;5058756;28;20394;-67
2023/10/02 00:07:34;;;;;;;22.25;10.73;;;;;;;17.05;89.10;101988.91;5066514;28;20031;-67
2023/10/02 00:10:01;;;;;;;25.25;10.55;;;;;;;17.02;89.46;101983.91;5066680;28;20020;-67
2023/10/02 00:12:29;;;;;;;23.40;10.85;;;;;;;16.99;89.67;101976.22;5059989;28;20032;-67
2023/10/02 00:14:55;;;;;;;21.33;10.80;;;;;;;16.96;89.56;101982.81;5067241;28;20028;-67
2023/10/02 00:17:22;;;;;;;23.20;10.88;;;;;;;16.94;89.62;101990.22;5064410;28;20500;-67
2023/10/02 00:19:52;;;;;;;22.98;11.68;;;;;;;16.94;89.86;101976.78;5063465;28;20033;-67
2023/10/02 00:22:35;;;;;;;22.92;11.48;;;;;;;16.94;90.03;101986.69;5061332;28;20025;-67
2023/10/02 00:25:07;;;;;;;23.58;11.27;;;;;;;16.92;89.93;101986.88;5062882;28;20497;-67
2023/10/02 00:27:34;;;;;;;24.23;10.80;;;;;;;16.92;90.02;101988.72;5059013;28;20126;-68
2023/10/02 00:30:00;;;;;;;22.27;10.90;;;;;;;16.92;90.20;101988.72;5057073;28;20035;-67
2023/10/02 00:32:26;;;;;;;20.67;10.65;;;;;;;16.88;90.07;101982.06;5062281;28;20556;-67
2023/10/02 00:34:53;;;;;;;22.73;11.45;;;;;;;16.90;90.33;101982.72;5061868;28;20032;-67
2023/10/02 00:37:19;;;;;;;23.13;11.35;;;;;;;16.91;90.20;101987.91;5062061;28;20112;-67
2023/10/02 00:39:47;;;;;;;23.27;11.02;;;;;;;16.91;89.93;101987.91;5062982;28;20055;-67
2023/10/02 00:42:16;;;;;;;21.77;11.00;;;;;;;16.92;90.12;101984.19;5062003;28;20093;-67
2023/10/02 00:44:52;;;;;;;23.02;11.25;;;;;;;16.90;90.20;101980.03;5064566;28;20024;-67
2023/10/02 00:47:42;;;;;;;29.27;12.50;;;;;;;16.92;90.28;101969.94;5062010;28;20107;-67
2023/10/02 00:50:12;;;;;;;23.33;10.88;;;;;;;16.92;90.30;101973.47;5066134;28;20024;-67
2023/10/02 00:52:41;;;;;;;23.42;11.15;;;;;;;16.90;90.26;101980.03;5059829;28;20107;-67
2023/10/02 00:55:12;;;;;;;25.13;11.48;;;;;;;16.90;90.27;101963.94;5065731;28;20032;-68
2023/10/02 00:57:39;;;;;;;23.55;11.88;;;;;;;16.87;90.19;101959.78;5062126;28;20103;-67
2023/10/02 01:00:07;;;;;;;23.27;11.43;;;;;;;16.87;90.22;101972.34;5061365;28;20020;-67
2023/10/02 01:02:39;;;;;;;26.70;11.30;;;;;;;16.85;90.52;101960.97;5060292;28;20031;-67
2023/10/02 01:05:06;;;;;;;23.90;11.57;;;;;;;16.80;90.24;101964.22;5061619;28;20501;-68
2023/10/02 01:07:33;;;;;;;23.77;11.60;;;;;;;16.79;90.59;101956.34;5052814;28;20028;-67
2023/10/02 01:10:07;;;;;;;24.80;11.18;;;;;;;16.85;90.64;101966.34;5058513;28;20036;-68
2023/10/02 01:12:43;;;;;;;21.17;10.73;;;;;;;16.82;90.67;101967.53;5063429;28;20020;-67
2023/10/02 01:15:12;;;;;;;22.05;11.00;;;;;;;16.83;90.55;101958.47;5065143;28;20032;-68
2023/10/02 01:17:40;;;;;;;24.70;11.23;;;;;;;16.76;90.66;101941.44;5061580;28;20035;-67
2023/10/02 01:20:20;;;;;;;23.40;11.00;;;;;;;16.75;90.73;101955.03;5057517;28;20379;-67
2023/10/02 01:22:51;;;;;;;22.75;11.15;;;;;;;16.74;90.51;101954.19;5057231;28;20036;-67
2023/10/02 01:25:23;;;;;;;23.75;10.43;;;;;;;16.70;90.40;101961.78;5059551;28;20071;-67
2023/10/02 01:27:56;;;;;;;22.98;10.38;;;;;;;16.73;90.37;101952.53;5063930;28;20703;-68
2023/10/02 01:30:23;;;;;;;21.30;10.23;;;;;;;16.67;90.38;101955.97;5059243;28;20028;-67
2023/10/02 01:33:12;;;;;;;21.02;10.88;;;;;;;16.64;90.35;101956.28;5060397;28;20024;-68
2023/10/02 01:35:48;;;;;;;22.20;10.35;;;;;;;16.66;90.35;101955.13;5062446;28;20037;-67
2023/10/02 01:38:29;;;;;;;24.13;11.63;;;;;;;16.63;90.50;101957.31;5054188;28;20025;-67
2023/10/02 01:41:02;;;;;;;20.05;10.10;;;;;;;16.60;90.24;101957.69;5061651;28;20021;-67
2023/10/02 01:43:32;;;;;;;22.92;11.02;;;;;;;16.52;90.46;101949.72;5063776;28;20032;-68
2023/10/02 01:45:57;;;;;;;22.85;10.65;;;;;;;16.58;90.49;101954.34;5059156;28;20104;-68
2023/10/02 01:48:36;;;;;;;23.25;10.68;;;;;;;16.56;90.56;101957.22;5060849;28;20104;-68
2023/10/02 01:51:20;;;;;;;21.85;10.82;;;;;;;16.56;90.46;101951.84;5065009;28;20020;-67
2023/10/02 01:53:51;;;;;;;21.55;11.07;;;;;;;16.54;90.61;101951.19;5064733;28;20023;-67
2023/10/02 01:56:18;;;;;;;22.23;11.13;;;;;;;16.46;90.94;101935.16;5069779;28;20036;-68
2023/10/02 01:58:48;;;;;;;21.80;10.63;;;;;;;16.52;90.80;101942.50;5064000;28;20021;-68
2023/10/02 02:01:14;;;;;;;21.33;11.15;;;;;;;16.54;90.68;101947.69;5063424;28;20028;-67
2023/10/02 02:03:42;;;;;;;23.80;11.55;;;;;;;16.54;91.02;101945.00;5062030;28;20028;-67
2023/10/02 02:06:08;;;;;;;22.10;11.10;;;;;;;16.51;90.81;101950.75;5069032;28;20485;-68
2023/10/02 02:08:43;;;;;;;21.45;10.57;;;;;;;16.50;90.76;101941.88;5066423;28;20107;-67
2023/10/02 02:11:20;;;;;;;22.65;11.13;;;;;;;16.48;90.70;101951.06;5064102;28;20035;-67
2023/10/02 02:13:52;;;;;;;22.27;11.20;;;;;;;16.40;90.63;101944.78;5064947;28;20073;-68
2023/10/02 02:16:25;;;;;;;20.15;10.05;;;;;;;16.40;90.81;101941.25;5063450;28;20086;-68
2023/10/02 02:18:55;;;;;;;23.00;10.82;;;;;;;16.39;90.75;101948.47;5062441;28;20472;-67
2023/10/02 02:21:24;;;;;;;20.73;10.80;;;;;;;16.37;91.15;101938.94;5061438;28;20033;-67
2023/10/02 02:24:08;;;;;;;21.00;10.35;;;;;;;16.39;91.28;101942.28;5063570;28;20024;-68
2023/10/02 02:26:36;;;;;;;20.13;10.43;;;;;;;16.35;91.24;101941.81;5066005;28;20060;-68
2023/10/02 02:29:03;;;;;;;22.45;11.02;;;;;;;16.34;91.38;101937.47;5068478;28;20100;-67
2023/10/02 02:31:36;;;;;;;21.75;10.55;;;;;;;16.33;91.45;101934.97;5062434;28;20044;-68
2023/10/02 02:34:04;;;;;;;21.05;10.38;;;;;;;16.32;91.37;101936.00;5061297;28;20098;-67
2023/10/02 02:36:41;;;;;;;22.67;10.80;;;;;;;16.33;91.27;101934.97;5055835;28;20036;-67
2023/10/02 02:39:17;;;;;;;21.70;11.50;;;;;;;16.32;91.54;101931.47;5061885;28;20044;-68
2023/10/02 02:41:43;;;;;;;20.15;10.75;;;;;;;16.33;91.33;101929.59;5058068;28;20020;-67
2023/10/02 02:44:29;;;;;;;21.23;10.90;;;;;;;16.29;91.37;101931.00;5062992;28;20028;-67
2023/10/02 02:46:55;;;;;;;24.63;11.65;;;;;;;16.30;91.81;101927.28;5064391;28;20078;-67
2023/10/02 02:49:21;;;;;;;25.40;12.07;;;;;;;16.24;91.65;101920.81;5064384;28;20397;-68
2023/10/02 02:51:48;;;;;;;21.95;11.40;;;;;;;16.28;91.97;101923.97;5067874;28;20029;-68
2023/10/02 02:54:14;;;;;;;23.27;11.48;;;;;;;16.25;92.10;101916.28;5065904;28;20036;-67
2023/10/02 02:56:40;;;;;;;24.77;11.43;;;;;;;16.21;92.52;101923.03;5065678;28;20085;-67
2023/10/02 02:59:08;;;;;;;21.73;11.02;;;;;;;16.25;92.45;101930.53;5065637;28;20032;-67
2023/10/02 03:01:33;;;;;;;23.75;11.27;;;;;;;16.24;92.66;101920.00;5067048;28;20029;-68
2023/10/02 03:04:11;;;;;;;22.60;11.23;;;;;;;16.27;92.70;101912.41;5062684;28;20020;-67
2023/10/02 03:06:37;;;;;;;24.55;11.55;;;;;;;16.26;92.93;101918.78;5063330;28;20111;-68
2023/10/02 03:09:05;;;;;;;23.45;11.32;;;;;;;16.23;93.06;101919.16;5062520;28;20562;-67
2023/10/02 03:11:32;;;;;;;21.85;10.57;;;;;;;16.22;93.06;101919.34;5059416;28;20036;-67
2023/10/02 03:14:12;;;;;;;24.77;11.63;;;;;;;16.16;93.02;101912.81;5066273;28;20504;-68
2023/10/02 03:16:38;;;;;;;19.83;10.85;;;;;;;16.17;93.12;101916.34;5066717;28;20485;-68
2023/10/02 03:19:07;;;;;;;23.83;11.27;;;;;;;16.18;93.14;101915.31;5062731;28;20021;-68
2023/10/02 03:21:34;;;;;;;24.23;11.45;;;;;;;16.18;93.12;101901.94;5067749;28;20070;-68
2023/10/02 03:24:01;;;;;;;20.70;10.82;;;;;;;16.17;93.15;101902.94;5065057;28;20031;-67
2023/10/02 03:26:37;;;;;;;23.10;11.05;;;;;;;16.16;92.91;101902.09;5067807;28;20020;-67
2023/10/02 03:29:16;;;;;;;25.00;11.98;;;;;;;16.10;93.25;101902.84;5060641;28;20033;-67
2023/10/02 03:31:43;;;;;;;23.58;11.77;;;;;;;16.07;93.19;101900.53;5067828;28;20104;-67
2023/10/02 03:34:27;;;;;;;25.58;12.30;;;;;;;16.04;93.35;101903.56;5062160;28;20017;-68
2023/10/02 03:36:55;;;;;;;23.60;11.38;;;;;;;16.01;93.80;101912.81;5061764;28;20497;-68
2023/10/02 03:39:23;;;;;;;23.83;11.88;;;;;;;15.96;93.87;101914.34;5058620;28;20104;-68
2023/10/02 03:41:50;;;;;;;24.13;11.52;;;;;;;15.96;94.00;101906.31;5063676;28;20024;-68
2023/10/02 03:44:16;;;;;;;25.30;11.98;;;;;;;15.92;94.13;101896.97;5061432;28;20020;-68
2023/10/02 03:46:42;;;;;;;25.25;11.50;;;;;;;15.94;94.53;101903.00;5063388;28;20500;-68
2023/10/02 03:49:08;;;;;;;23.17;11.10;;;;;;;15.93;94.37;101909.38;5067070;28;20027;-68
2023/10/02 03:51:37;;;;;;;27.10;12.23;;;;;;;15.93;94.37;101902.16;5056747;28;20040;-68
2023/10/02 03:54:18;;;;;;;24.00;11.25;;;;;;;15.94;94.70;101911.03;5062952;28;20024;-68
2023/10/02 03:56:55;;;;;;;26.20;11.50;;;;;;;15.87;94.72;101921.59;5060723;28;20493;-68
2023/10/02 03:59:27;;;;;;;24.65;11.68;;;;;;;15.82;94.59;101918.63;5057115;28;20021;-67
2023/10/02 04:02:24;;;;;;;24.70;12.02;;;;;;;15.78;95.07;101912.81;5061133;28;20107;-68
2023/10/02 04:04:43;;;;;;;22.92;11.20;;;;;;;15.74;94.90;101906.16;5059068;28;20101;-68
2023/10/02 04:07:10;;;;;;;25.67;11.88;;;;;;;15.78;94.98;101904.78;5066632;28;20107;-68
2023/10/02 04:09:36;;;;;;;25.02;12.32;;;;;;;15.78;95.21;101903.94;5062615;28;20040;-67
2023/10/02 04:12:04;;;;;;;22.95;11.68;;;;;;;15.74;95.27;101903.47;5065343;28;20016;-68
2023/10/02 04:14:33;;;;;;;25.77;11.90;;;;;;;15.76;95.02;101906.78;5062688;28;20771;-67
2023/10/02 04:19:49;;;;;;;23.98;11.52;;;;;;;15.79;95.21;101906.44;5062253;28;20064;-67
2023/10/02 04:22:30;;;;;;;23.00;11.48;;;;;;;15.76;95.57;101906.78;5065026;28;20082;-67
2023/10/02 04:25:03;;;;;;;21.40;10.73;;;;;;;15.75;95.55;101898.94;5063552;28;20135;-67
2023/10/02 04:32:42;;;;;;;25.02;12.13;;;;;;;15.70;95.62;101901.31;5065866;28;20107;-67
2023/10/02 04:35:44;;;;;;;27.00;12.10;;;;;;;15.70;95.75;101909.34;5065947;28;20028;-67
2023/10/02 04:37:58;;;;;;;25.45;12.25;;;;;;;15.59;95.80;101893.69;5064180;28;20047;-67
2023/10/02 04:40:38;;;;;;;25.23;12.23;;;;;;;15.57;95.80;101901.88;5064574;28;20521;-68
2023/10/02 04:43:19;;;;;;;23.15;11.77;;;;;;;15.55;95.92;101909.25;5065165;28;20412;-67
2023/10/02 04:45:48;;;;;;;27.45;12.30;;;;;;;15.52;96.06;101911.44;5062320;28;20020;-67
2023/10/02 04:48:14;;;;;;;25.00;12.07;;;;;;;15.51;96.47;101902.56;5063567;28;20032;-67
2023/10/02 04:50:46;;;;;;;26.10;11.98;;;;;;;15.46;96.52;101904.97;5064574;28;20527;-67
2023/10/02 04:55:44;;;;;;;25.10;12.18;;;;;;;15.34;96.85;101887.66;5059723;28;20051;-67
2023/10/02 04:58:14;;;;;;;25.30;11.85;;;;;;;15.36;96.88;101897.16;5063618;28;20024;-67
2023/10/02 05:03:32;;;;;;;28.50;12.40;;;;;;;15.39;97.42;101893.28;5064180;28;20024;-67
2023/10/02 05:05:59;;;;;;;27.00;12.07;;;;;;;15.36;97.53;101891.81;5064534;28;20028;-67
2023/10/02 05:11:25;;;;;;;24.15;11.90;;;;;;;15.32;97.51;101889.63;5043690;28;20090;-67
2023/10/02 05:13:59;;;;;;;27.83;12.32;;;;;;;15.29;97.46;101887.31;5064361;28;20111;-67
2023/10/02 05:16:34;;;;;;;26.52;12.68;;;;;;;15.28;97.72;101885.66;5059360;28;20029;-67
2023/10/02 05:19:04;;;;;;;25.80;12.77;;;;;;;15.28;97.89;101885.66;5061836;28;20397;-67
2023/10/02 05:24:13;;;;;;;27.17;12.20;;;;;;;15.25;98.06;101894.03;5067450;28;20063;-67
2023/10/02 05:26:44;;;;;;;22.65;12.13;;;;;;;15.24;98.17;101895.03;5067728;28;20478;-67
2023/10/02 05:31:58;;;;;;;23.83;11.77;;;;;;;15.20;98.16;101891.88;5064970;28;20504;-67
2023/10/02 05:34:23;;;;;;;25.08;12.20;;;;;;;15.18;98.32;101905.44;5069435;28;20406;-67
2023/10/02 05:39:39;;;;;;;28.63;12.88;;;;;;;15.22;98.57;101894.38;5060286;28;20037;-67
2023/10/02 05:42:14;;;;;;;26.05;12.07;;;;;;;15.25;98.61;101910.91;5061866;28;20028;-67
2023/10/02 05:44:43;;;;;;;27.33;12.27;;;;;;;15.22;98.73;101902.41;5058672;28;20020;-67
2023/10/02 05:47:09;;;;;;;;;;;;;;;15.31;98.43;101907.53;5066210;28;20036;-67
2023/10/02 05:49:47;;;;;;;23.70;12.00;;;;;;;15.16;98.07;101896.75;5069776;28;19916;-68
2023/10/02 05:52:18;;;;;;;28.15;12.63;;;;;;;15.28;98.32;101923.13;5068250;28;20036;-67
2023/10/02 05:54:47;;;;;;;27.55;12.10;;;;;;;15.25;98.36;101912.75;5063582;28;20782;-67
2023/10/02 05:57:13;;;;;;;25.77;11.95;;;;;;;15.30;98.68;101919.25;5068831;28;20028;-67
2023/10/02 05:59:47;;;;;;;27.63;13.48;;;;;;;15.34;98.52;101911.72;5065479;28;20151;-67
2023/10/02 06:02:13;;;;;;;28.20;12.20;;;;;;;15.32;98.53;101914.56;5068381;28;20024;-67
2023/10/02 06:04:43;;;;;;;26.52;12.60;;;;;;;15.35;98.59;101924.09;5065803;28;20016;-68
2023/10/02 06:07:11;;;;;;;24.25;11.85;;;;;;;15.35;98.56;101914.22;5061421;28;20021;-67
2023/10/02 06:09:44;;;;;;;24.00;12.20;;;;;;;15.36;98.60;101912.38;5067924;28;20032;-67
2023/10/02 06:12:11;;;;;;;27.73;12.20;;;;;;;15.35;98.56;101910.72;5061215;28;20029;-67
2023/10/02 06:14:42;;;;;;;25.20;11.57;;;;;;;15.39;98.32;101909.34;5070274;28;20029;-67
2023/10/02 06:17:11;;;;;;;26.95;12.32;;;;;;;15.40;98.68;101932.44;5067002;28;20036;-67
2023/10/02 06:19:44;;;;;;;24.00;12.13;;;;;;;15.37;98.58;101922.91;5068369;28;20036;-67
2023/10/02 06:22:13;;;;;;;30.02;12.48;;;;;;;15.40;98.58;101924.41;5065744;28;20028;-67
2023/10/02 06:24:39;;;;;;;24.70;11.52;;;;;;;15.41;98.39;101928.75;5066055;28;20893;-67
2023/10/02 06:27:07;;;;;;;30.80;13.07;;;;;;;15.40;98.46;101919.06;5065604;28;20104;-68
2023/10/02 06:29:37;;;;;;;24.83;12.48;;;;;;;15.40;98.76;101927.09;5068264;28;20024;-67
2023/10/02 06:32:11;;;;;;;26.50;12.43;;;;;;;15.39;98.47;101933.44;5069333;28;20025;-67
2023/10/02 06:34:38;;;;;;;27.27;13.02;;;;;;;15.40;98.53;101940.47;5064910;28;20029;-67
2023/10/02 06:37:16;;;;;;;26.40;12.65;;;;;;;15.43;98.70;101940.13;5066824;28;20028;-67
2023/10/02 06:40:05;;;;;;;28.33;12.77;;;;;;;15.46;98.71;101945.94;5061384;28;20024;-67
2023/10/02 06:42:32;;;;;;;28.70;13.32;;;;;;;15.47;98.72;101928.88;5062926;28;20116;-67
2023/10/02 06:45:01;;;;;;;25.60;12.30;;;;;;;15.51;98.27;101932.03;5067046;28;20027;-67
2023/10/02 06:47:34;;;;;;;29.20;12.55;;;;;;;15.56;98.43;101934.16;5060400;28;20029;-67
2023/10/02 06:50:03;;;;;;;28.85;13.25;;;;;;;15.59;98.62;101936.53;5069229;28;20096;-67
2023/10/02 06:52:32;;;;;;;26.25;12.60;;;;;;;15.62;98.47;101939.72;5068420;28;20028;-67
2023/10/02 06:55:01;;;;;;;27.30;12.43;;;;;;;15.64;98.47;101944.88;5061809;28;20120;-67
2023/10/02 06:57:26;;;;;;;28.10;13.27;;;;;;;15.66;98.62;101940.19;5060923;28;20035;-67
2023/10/02 06:59:53;;;;;;;30.20;13.25;;;;;;;15.68;98.46;101925.59;5059475;28;20469;-67
2023/10/02 07:02:23;;;;;;;29.73;13.55;;;;;;;15.73;98.48;101925.91;5060240;28;20082;-67
2023/10/02 07:04:50;;;;;;;31.98;13.88;;;;;;;15.79;98.48;101927.03;5067122;28;20016;-67
2023/10/02 07:07:26;;;;;;;28.77;13.20;;;;;;;15.84;98.42;101926.50;5061929;28;20099;-67
2023/10/02 07:09:52;;;;;;;28.83;12.93;;;;;;;15.88;97.99;101936.66;5067549;28;20023;-68
2023/10/02 07:12:20;;;;;;;28.05;13.30;;;;;;;15.91;97.83;101922.94;5064131;28;20024;-67
2023/10/02 07:14:47;;;;;;;26.33;13.75;;;;;;;15.96;97.88;101930.44;5056905;28;20108;-67
2023/10/02 07:17:16;;;;;;;29.35;13.13;;;;;;;16.01;97.55;101923.53;5059536;28;20032;-67
2023/10/02 07:19:51;;;;;;;29.55;13.45;;;;;;;16.07;97.52;101927.31;5062478;28;20719;-67
2023/10/02 07:22:18;;;;;;;28.35;12.82;;;;;;;16.15;97.54;101921.06;5058839;28;20449;-67
2023/10/02 07:24:46;;;;;;;27.33;13.93;;;;;;;16.21;97.22;101926.53;5065147;28;20052;-67
2023/10/02 07:27:24;;;;;;;29.65;13.65;;;;;;;16.28;97.19;101929.31;5061550;28;20081;-67
2023/10/02 07:29:51;;;;;;;30.77;13.73;;;;;;;16.37;97.11;101933.59;5061614;28;20040;-67
2023/10/02 07:32:18;;;;;;;31.65;13.57;;;;;;;16.50;97.51;101932.97;5062302;28;20687;-67
2023/10/02 07:34:45;;;;;;;27.83;13.50;;;;;;;16.61;97.44;101935.22;5057460;28;20025;-67
2023/10/02 07:37:13;;;;;;;30.27;13.55;;;;;;;16.72;97.42;101935.59;5063580;28;20102;-68
2023/10/02 07:39:39;;;;;;;24.58;13.32;;;;;;;16.77;97.14;101931.53;5064717;28;20032;-67
2023/10/02 07:42:06;;;;;;;30.50;13.95;;;;;;;16.81;96.49;101933.69;5066626;28;20082;-67
2023/10/02 07:44:36;;;;;;;29.50;14.07;;;;;;;16.86;96.24;101936.66;5063454;28;20661;-68
2023/10/02 07:47:10;;;;;;;30.40;14.15;;;;;;;16.90;95.83;101935.25;5059794;28;20028;-68
2023/10/02 07:49:37;;;;;;;27.17;13.40;;;;;;;16.97;95.74;101938.84;5065096;28;20555;-67
2023/10/02 07:52:06;;;;;;;26.52;13.38;;;;;;;17.01;95.74;101939.31;5052957;28;20021;-67
2023/10/02 07:54:44;;;;;;;27.23;12.98;;;;;;;17.03;95.49;101932.72;5065256;28;20048;-67
2023/10/02 07:57:13;;;;;;;26.67;12.77;;;;;;;17.05;94.87;101924.50;5064338;28;20067;-67
2023/10/02 07:59:40;;;;;;;29.08;12.95;;;;;;;17.06;95.00;101926.19;5060898;28;20871;-67
2023/10/02 08:02:21;;;;;;;27.65;13.27;;;;;;;17.13;94.89;101928.94;5067202;28;20055;-68
2023/10/02 08:04:48;;;;;;;27.05;12.68;;;;;;;17.12;94.62;101917.38;5064436;28;20628;-67
2023/10/02 08:07:13;;;;;;;30.20;13.32;;;;;;;17.20;94.39;101919.13;5062754;28;20027;-67
2023/10/02 08:09:40;;;;;;;28.50;13.55;;;;;;;17.23;94.26;101932.16;5061191;28;20028;-68
2023/10/02 08:12:08;;;;;;;27.90;13.05;;;;;;;17.29;94.54;101937.59;5061771;28;20048;-68
2023/10/02 08:14:42;;;;;;;27.40;13.67;;;;;;;17.35;94.54;101944.09;5059632;28;20370;-68
2023/10/02 08:17:21;;;;;;;28.05;13.38;;;;;;;17.38;94.38;101951.78;5058079;28;20028;-67
2023/10/02 08:19:59;;;;;;;31.38;13.85;;;;;;;17.43;94.08;101953.91;5057140;28;20021;-67
2023/10/02 08:22:35;;;;;;;28.73;13.30;;;;;;;17.51;94.02;101957.31;5057454;28;20016;-67
2023/10/02 08:25:13;;;;;;;26.98;13.55;;;;;;;17.56;93.60;101954.03;5065693;28;20100;-67
2023/10/02 08:27:56;;;;;;;29.48;13.63;;;;;;;17.64;93.39;101957.47;5066889;28;20104;-68
2023/10/02 08:30:31;;;;;;;30.48;13.52;;;;;;;17.74;93.24;101961.72;5063121;28;20389;-67
2023/10/02 08:33:05;;;;;;;29.92;13.80;;;;;;;17.85;93.12;101958.53;5060730;28;20048;-67
2023/10/02 08:35:36;;;;;;;31.40;13.65;;;;;;;17.88;92.92;101945.53;5064376;28;20091;-67
2023/10/02 08:38:02;;;;;;;36.45;14.98;;;;;;;18.01;92.63;101942.16;5063175;28;20013;-67
2023/10/02 08:40:27;;;;;;;31.15;14.52;;;;;;;18.12;92.52;101943.47;5065185;28;20033;-68
2023/10/02 08:42:56;;;;;;;27.05;13.60;;;;;;;18.17;92.07;101943.72;5058907;28;20020;-68
2023/10/02 08:45:21;;;;;;;28.67;13.32;;;;;;;18.19;91.29;101947.88;5056448;28;20021;-67
2023/10/02 08:47:47;;;;;;;29.45;13.57;;;;;;;18.22;90.58;101950.22;5056249;28;20028;-67
2023/10/02 08:50:15;;;;;;;26.52;13.90;;;;;;;18.27;90.70;101952.31;5067979;28;20106;-67
2023/10/02 08:52:53;;;;;;;32.83;15.30;;;;;;;18.36;91.19;101948.44;5063391;28;20025;-68
2023/10/02 08:58:15;;;;;;;30.85;14.40;;;;;;;18.52;90.43;101933.91;5062662;28;20028;-68
2023/10/02 09:03:41;;;;;;;30.52;14.60;;;;;;;18.60;89.08;101935.59;5060463;28;20408;-68
2023/10/02 09:06:27;;;;;;;32.33;14.73;;;;;;;18.67;88.55;101937.31;5065237;28;20044;-68
2023/10/02 09:11:52;;;;;;;32.72;15.32;;;;;;;18.79;88.39;101929.53;5058118;28;20043;-68
2023/10/02 09:16:45;;;;;;;32.13;15.05;;;;;;;18.84;88.12;101944.06;5065604;28;20102;-68
2023/10/02 09:19:34;;;;;;;28.98;14.90;;;;;;;18.90;88.36;101947.81;5063369;28;20059;-68
2023/10/02 09:22:07;;;;;;;30.90;15.00;;;;;;;18.93;88.02;101930.44;5056687;28;20170;-68
2023/10/02 09:24:36;;;;;;;30.52;15.13;;;;;;;18.95;87.94;101936.47;5066334;28;20025;-68
2023/10/02 09:27:25;;;;;;;33.05;14.75;;;;;;;18.94;87.87;101927.56;5064091;28;20115;-67
2023/10/02 09:32:47;;;;;;;32.38;14.73;;;;;;;19.14;88.47;101927.66;5060322;28;20039;-69
2023/10/02 09:35:25;;;;;;;33.05;14.80;;;;;;;19.23;88.31;101931.81;5061465;28;20129;-68
2023/10/02 09:38:06;;;;;;;33.85;15.13;;;;;;;19.40;88.31;101933.16;5062501;28;20024;-68
2023/10/02 09:40:54;;;;;;;31.38;15.05;;;;;;;19.50;87.96;101924.66;5061445;28;20509;-68
2023/10/02 09:43:28;;;;;;;31.83;15.30;;;;;;;19.54;87.12;101923.25;5063161;28;20501;-68
2023/10/02 09:45:59;;;;;;;31.60;14.95;;;;;;;19.72;87.65;101936.16;5058468;28;20035;-67
2023/10/02 09:51:26;;;;;;;31.27;15.60;;;;;;;20.08;86.37;101939.31;5058567;28;20063;-68
2023/10/02 09:54:04;;;;;;;32.97;15.00;;;;;;;20.20;85.21;101925.19;5057542;28;20607;-68
2023/10/02 09:57:04;;;;;;;32.83;15.17;;;;;;;20.30;84.35;101925.63;5065244;28;20028;-68
2023/10/02 09:59:37;;;;;;;32.40;15.93;;;;;;;20.39;84.02;101921.69;5060864;28;20045;-68
2023/10/02 10:02:08;;;;;;;31.48;15.52;;;;;;;20.53;83.25;101923.38;5060534;28;20021;-68
2023/10/02 10:05:00;;;;;;;32.60;16.00;;;;;;;20.64;82.80;101933.50;5061205;28;20020;-68
2023/10/02 10:07:54;;;;;;;31.88;15.05;;;;;;;20.80;82.39;101923.28;5055306;28;20111;-68
2023/10/02 10:10:47;;;;;;;28.77;14.50;;;;;;;20.87;81.71;101919.56;5057360;28;20044;-68
2023/10/02 10:13:37;;;;;;;28.88;14.80;;;;;;;20.99;82.03;101914.31;5061579;28;20032;-68
2023/10/02 10:16:11;;;;;;;28.83;15.18;;;;;;;21.04;81.83;101914.50;5059143;28;20024;-68
2023/10/02 10:19:22;;;;;;;30.42;14.88;;;;;;;21.12;81.85;101916.97;5061121;28;20033;-68
2023/10/02 10:22:10;;;;;;;31.27;15.43;;;;;;;21.19;81.63;101906.13;5069030;28;20043;-68
2023/10/02 10:25:22;;;;;;;30.45;15.30;;;;;;;21.23;81.24;101902.81;5066971;28;20420;-68
2023/10/02 10:27:54;;;;;;;32.75;15.48;;;;;;;21.23;80.89;101902.81;5066798;28;20088;-68
2023/10/02 10:33:17;;;;;;;30.75;14.98;;;;;;;21.41;80.06;101898.59;5056343;28;20039;-68
2023/10/02 10:35:52;;;;;;;27.65;14.23;;;;;;;21.34;79.19;101898.59;5068200;28;20408;-68
2023/10/02 10:38:34;;;;;;;28.73;15.02;;;;;;;21.30;78.96;101900.06;5066104;28;20547;-68
2023/10/02 10:41:00;;;;;;;31.67;15.20;;;;;;;21.37;78.91;101900.03;5065676;28;20385;-68
2023/10/02 10:46:17;;;;;;;28.42;14.13;;;;;;;21.63;79.51;101889.06;5060154;28;20084;-68
2023/10/02 10:48:48;;;;;;;28.63;14.57;;;;;;;21.65;79.49;101890.50;5066056;28;20036;-68
2023/10/02 10:51:23;;;;;;;28.15;14.45;;;;;;;21.73;78.88;101877.78;5064446;28;20611;-68
2023/10/02 10:53:52;;;;;;;29.83;13.75;;;;;;;21.73;78.51;101886.72;5067812;28;20028;-68
2023/10/02 10:56:19;;;;;;;29.80;13.75;;;;;;;21.78;78.34;101886.91;5062288;28;20048;-68
2023/10/02 10:58:51;;;;;;;28.42;13.35;;;;;;;21.82;77.97;101889.97;5066549;28;20028;-68
2023/10/02 11:01:17;;;;;;;26.88;13.85;;;;;;;21.89;78.15;101885.34;5062032;28;20255;-68
2023/10/02 11:03:43;;;;;;;27.52;13.65;;;;;;;22.00;78.19;101881.13;5069072;28;20644;-68
2023/10/02 11:06:10;;;;;;;29.45;13.48;;;;;;;22.12;77.77;101884.78;5066745;28;20035;-68
2023/10/02 11:08:40;;;;;;;31.83;13.68;;;;;;;22.21;77.83;101876.16;5064140;28;20067;-68
2023/10/02 11:11:11;;;;;;;26.70;12.73;;;;;;;22.31;77.85;101878.38;5064799;28;20028;-68
2023/10/02 11:13:50;;;;;;;26.95;13.30;;;;;;;22.34;77.42;101880.63;5066937;28;20024;-68
2023/10/02 11:16:36;;;;;;;23.98;12.68;;;;;;;22.39;76.72;101880.78;5066464;28;20145;-68
2023/10/02 11:19:21;;;;;;;29.00;12.80;;;;;;;22.32;76.16;101877.31;5062551;28;20704;-69
2023/10/02 11:22:15;;;;;;;25.85;12.05;;;;;;;22.35;76.27;101878.75;5061182;28;20024;-69
2023/10/02 11:25:17;;;;;;;22.63;11.50;;;;;;;22.31;75.85;101870.25;5066503;28;20024;-69
2023/10/02 11:27:43;;;;;;;29.23;12.50;;;;;;;22.23;75.48;101865.94;5068230;28;20027;-69
2023/10/02 11:30:09;;;;;;;30.88;13.07;;;;;;;22.29;76.15;101864.22;5059507;28;20017;-69
2023/10/02 11:32:53;;;;;;;27.20;12.68;;;;;;;22.29;76.20;101866.94;5067191;28;20512;-69
2023/10/02 11:35:22;;;;;;;30.70;13.13;;;;;;;22.29;76.68;101868.81;5065202;28;20020;-69
2023/10/02 11:37:48;;;;;;;28.63;13.15;;;;;;;22.31;76.53;101872.13;5063216;28;20397;-69
2023/10/02 11:40:14;;;;;;;24.00;12.65;;;;;;;22.29;75.91;101864.22;5063374;28;20028;-69
2023/10/02 11:42:40;;;;;;;30.23;14.07;;;;;;;22.28;76.00;101868.00;5063955;28;20032;-69
2023/10/02 11:45:07;;;;;;;29.80;13.50;;;;;;;22.33;75.48;101862.72;5059740;28;20028;-69
2023/10/02 11:47:32;;;;;;;27.05;13.88;;;;;;;22.34;75.97;101861.69;5059560;28;20103;-68
2023/10/02 11:49:58;;;;;;;29.48;14.07;;;;;;;22.29;75.35;101855.28;5061850;28;20154;-69
2023/10/02 11:52:23;;;;;;;30.75;13.63;;;;;;;22.23;75.29;101848.88;5064957;28;20032;-69
2023/10/02 11:54:48;;;;;;;29.52;13.52;;;;;;;22.27;75.20;101847.41;5060106;28;20505;-69
2023/10/02 11:57:14;;;;;;;32.28;14.57;;;;;;;22.25;74.94;101847.59;5068297;28;20032;-69
2023/10/02 11:59:41;;;;;;;29.60;14.13;;;;;;;22.22;75.26;101839.91;5064334;28;20017;-69
2023/10/02 12:02:11;;;;;;;33.10;14.88;;;;;;;22.30;75.53;101843.41;5065669;28;20488;-69
2023/10/02 12:04:39;;;;;;;29.58;14.35;;;;;;;22.28;75.02;101838.22;5066570;28;20078;-69
2023/10/02 12:07:05;;;;;;;29.52;14.45;;;;;;;22.29;74.53;101826.34;5068823;28;20524;-69
2023/10/02 12:09:33;;;;;;;29.85;14.60;;;;;;;22.42;74.28;101830.78;5062735;28;20017;-69
2023/10/02 12:11:59;;;;;;;29.15;13.65;;;;;;;22.44;74.39;101832.22;5066981;28;20021;-69
2023/10/02 12:14:28;;;;;;;29.55;14.48;;;;;;;22.50;74.65;101834.00;5062504;28;20028;-69
2023/10/02 12:16:59;;;;;;;27.92;14.05;;;;;;;22.56;74.26;101827.72;5062115;28;20055;-69
2023/10/02 12:19:26;;;;;;;30.27;14.43;;;;;;;22.65;74.75;101830.94;5062417;28;20059;-69
2023/10/02 12:21:52;;;;;;;28.35;14.20;;;;;;;22.72;74.13;101837.09;5064096;28;20414;-69